Terminal Aerodrome Forecast
Issued by NWS

Home | Current Version | Previous Version | Text Only | Print | Product List | Glossary Off
Versions: 1 2 3 4 5 6 7 8 9 10 11 12 13 14 15 16 17 18 19 20 21 22 23 24 25 26 27

000
FTUS43 KABR 152300
TAFMBG
TAF
KMBG 152339Z 1600/1624 14016KT P6SM SCT120 OVC150
     FM160400 08022G29KT P6SM VCSH OVC050
     FM160700 05024G30KT 4SM -RASN OVC035
     FM160900 03020G27KT 1SM -SN OVC015
     FM161300 02022G29KT P6SM OVC025=

USA.gov is the U.S. government's official web portal to all federal, state and local government web resources and services.